Bahamas Express — HP5898 — position and weather

sailwx.info

Track history (hours):
 
Tides and Currents Weather Stations Pressure Air Temp Water Temp Dewpoint Dewpoint Depression Visibility Wind Speed Wind Dir Waves Ship Positions

Bahamas Express

Last reported at 2017-Dec-13 22:56 UTC. Time now 2017-Dec-17 04:15 UTC.
Position N 18°20' W 064°57'.

Length 52 m; draft 2 m.

Type: Cargo ship. MMSI: 371923000.

Date/timePositionNaut miles runAvg speedWind from/ knotsBaromVisibWave heightAir tempDewpointWater temp
2017-Dec-13 22:56N 18°20' W 064°57'0 0.0
2017-Dec-13 22:29N 18°20' W 064°57'0 0.0
2017-Dec-13 22:00N 18°20' W 064°57'0 0.0
2017-Dec-13 21:30N 18°20' W 064°57'0 0.0
2017-Dec-13 21:00N 18°20' W 064°57'0 0.0
2017-Dec-13 20:30N 18°20' W 064°57'0 0.0
2017-Dec-13 20:00N 18°20' W 064°57'0 0.0
2017-Dec-13 19:30N 18°20' W 064°57'0 0.0
2017-Dec-13 19:00N 18°20' W 064°57'2 3.6
2017-Dec-13 18:31N 18°19' W 064°56'4 8.8
2017-Dec-13 18:00N 18°17' W 064°51'4 7.0
2017-Dec-13 17:29N 18°19' W 064°48'1 1.8
2017-Dec-13 17:00N 18°20' W 064°48'0 0.0
2017-Dec-13 16:30N 18°20' W 064°48'0 0.0
2017-Dec-13 16:00N 18°20' W 064°48'0 0.0
2017-Dec-13 15:30N 18°20' W 064°48'0 0.0
2017-Dec-13 15:00N 18°20' W 064°48'0 0.0
2017-Dec-13 14:30N 18°20' W 064°48'0 0.4
2017-Dec-13 14:00N 18°20' W 064°48'4 7.0
2017-Dec-13 13:30N 18°17' W 064°50'5 9.5
2017-Dec-13 13:00N 18°18' W 064°55'3 5.3
2017-Dec-13 12:30N 18°20' W 064°57'0 0.0
2017-Dec-13 12:00N 18°20' W 064°57'0 0.0
2017-Dec-13 11:30N 18°20' W 064°57'0 0.0
2017-Dec-13 11:00N 18°20' W 064°57'2 4.3
2017-Dec-13 10:30N 18°19' W 064°59'3 6.7
2017-Dec-13 10:00N 18°19' W 065°02'2 4.9
2017-Dec-13 09:30N 18°19' W 065°05'2 0.1
2017-Dec-11 22:30N 18°20' W 065°07'5 9.4
2017-Dec-11 22:00N 18°19' W 065°02'5 8.7
2017-Dec-11 21:29N 18°20' W 064°57'2 0.7
2017-Dec-11 18:50N 18°18' W 064°56'  
Track history (hours):
 
Tides and Currents Weather Stations Pressure Air Temp Water Temp Dewpoint Dewpoint Depression Visibility Wind Speed Wind Dir Waves Ship Positions

Bahamas Express

Last reported at 2017-Dec-13 22:56 UTC. Time now 2017-Dec-17 04:15 UTC.
Position N 18°20' W 064°57'.

Length 52 m; draft 2 m.

Type: Cargo ship. MMSI: 371923000.

Date/timePositionNaut miles runAvg speedWind from/ knotsBaromVisibWave heightAir tempDewpointWater temp
2017-Dec-13 22:56N 18°20' W 064°57'0 0.0
2017-Dec-13 22:29N 18°20' W 064°57'0 0.0
2017-Dec-13 22:00N 18°20' W 064°57'0 0.0
2017-Dec-13 21:30N 18°20' W 064°57'0 0.0
2017-Dec-13 21:00N 18°20' W 064°57'0 0.0
2017-Dec-13 20:30N 18°20' W 064°57'0 0.0
2017-Dec-13 20:00N 18°20' W 064°57'0 0.0
2017-Dec-13 19:30N 18°20' W 064°57'0 0.0
2017-Dec-13 19:00N 18°20' W 064°57'2 3.6
2017-Dec-13 18:31N 18°19' W 064°56'4 8.8
2017-Dec-13 18:00N 18°17' W 064°51'4 7.0
2017-Dec-13 17:29N 18°19' W 064°48'1 1.8
2017-Dec-13 17:00N 18°20' W 064°48'0 0.0
2017-Dec-13 16:30N 18°20' W 064°48'0 0.0
2017-Dec-13 16:00N 18°20' W 064°48'0 0.0
2017-Dec-13 15:30N 18°20' W 064°48'0 0.0
2017-Dec-13 15:00N 18°20' W 064°48'0 0.0
2017-Dec-13 14:30N 18°20' W 064°48'0 0.4
2017-Dec-13 14:00N 18°20' W 064°48'4 7.0
2017-Dec-13 13:30N 18°17' W 064°50'5 9.5
2017-Dec-13 13:00N 18°18' W 064°55'3 5.3
2017-Dec-13 12:30N 18°20' W 064°57'0 0.0
2017-Dec-13 12:00N 18°20' W 064°57'0 0.0
2017-Dec-13 11:30N 18°20' W 064°57'0 0.0
2017-Dec-13 11:00N 18°20' W 064°57'2 4.3
2017-Dec-13 10:30N 18°19' W 064°59'3 6.7
2017-Dec-13 10:00N 18°19' W 065°02'2 4.9
2017-Dec-13 09:30N 18°19' W 065°05'2 0.1
2017-Dec-11 22:30N 18°20' W 065°07'5 9.4
2017-Dec-11 22:00N 18°19' W 065°02'5 8.7
2017-Dec-11 21:29N 18°20' W 064°57'2 0.7
2017-Dec-11 18:50N 18°18' W 064°56'  

Dump ship's entire track history